Time;durP1;ratioP1;P1;durP2;ratioP2;P2;SDS_P1;SDS_P2;PMS_P1;PMS_P2;Temp;Humidity;BMP_temperature;BMP_pressure;BME280_temperature;BME280_humidity;BME280_pressure;Samples;Min_cycle;Max_cycle;Signal;HPM_P1;HPM_P2
2023/06/18 00:01:14;;;;;;;16.63;12.02;;;21.30;99.90;;;;;;4937681;29;20526;-86
2023/06/18 00:03:42;;;;;;;12.93;11.02;;;21.40;99.90;;;;;;4936972;29;20210;-84
2023/06/18 00:06:09;;;;;;;16.67;11.95;;;21.30;99.90;;;;;;4937628;29;20609;-84
2023/06/18 00:08:37;;;;;;;15.65;12.10;;;21.30;99.90;;;;;;4937897;29;20289;-86
2023/06/18 00:11:03;;;;;;;14.55;11.77;;;21.30;99.90;;;;;;4937603;29;20218;-85
2023/06/18 00:13:30;;;;;;;19.63;11.32;;;21.30;99.90;;;;;;4937259;29;20214;-83
2023/06/18 00:15:57;;;;;;;18.48;11.73;;;21.30;99.90;;;;;;4937416;29;20206;-85
2023/06/18 00:18:24;;;;;;;12.77;11.02;;;21.30;99.90;;;;;;4937641;29;20206;-85
2023/06/18 00:20:52;;;;;;;14.00;10.35;;;21.30;99.90;;;;;;4936135;29;20234;-86
2023/06/18 00:23:20;;;;;;;15.00;11.18;;;21.30;99.90;;;;;;4937020;29;20206;-85
2023/06/18 00:25:47;;;;;;;16.63;12.20;;;21.30;99.90;;;;;;4937673;29;20215;-85
2023/06/18 00:28:14;;;;;;;16.13;11.55;;;21.30;99.90;;;;;;4937634;29;20206;-85
2023/06/18 00:30:41;;;;;;;17.00;12.18;;;21.30;99.90;;;;;;4937209;29;20212;-85
2023/06/18 00:33:08;;;;;;;11.93;10.60;;;21.30;99.90;;;;;;4937942;29;20226;-86
2023/06/18 00:35:35;;;;;;;14.25;10.85;;;21.30;99.90;;;;;;4938012;29;20202;-86
2023/06/18 00:38:03;;;;;;;11.45;9.95;;;21.20;99.90;;;;;;4937474;29;20209;-87
2023/06/18 00:40:30;;;;;;;13.38;10.82;;;21.20;99.90;;;;;;4937745;29;20236;-86
2023/06/18 00:42:57;;;;;;;14.95;11.10;;;21.20;99.90;;;;;;4938407;29;20308;-82
2023/06/18 00:45:24;;;;;;;14.10;11.15;;;21.20;99.90;;;;;;4935730;29;20217;-83
2023/06/18 00:47:52;;;;;;;14.00;10.50;;;21.20;99.90;;;;;;4936321;29;20202;-82
2023/06/18 00:50:19;;;;;;;14.15;10.25;;;21.20;99.90;;;;;;4936581;29;20202;-82
2023/06/18 00:52:47;;;;;;;14.43;11.88;;;21.20;99.90;;;;;;4936038;29;20710;-84
2023/06/18 00:55:17;;;;;;;16.52;10.38;;;21.20;99.90;;;;;;4936513;29;21056;-82
2023/06/18 00:57:49;;;;;;;15.13;11.18;;;21.10;99.90;;;;;;4917976;29;20210;-83
2023/06/18 01:00:19;;;;;;;12.70;10.93;;;21.10;99.90;;;;;;4935343;29;20222;-83
2023/06/18 01:02:49;;;;;;;15.48;11.05;;;21.10;99.90;;;;;;4936370;29;20206;-81
2023/06/18 01:05:17;;;;;;;14.50;10.68;;;21.10;99.90;;;;;;4936199;29;20206;-84
2023/06/18 01:07:47;;;;;;;12.02;10.30;;;21.10;99.90;;;;;;4936040;29;20210;-84
2023/06/18 01:10:17;;;;;;;13.27;10.02;;;21.00;99.90;;;;;;4936536;29;20537;-84
2023/06/18 01:12:48;;;;;;;14.80;11.10;;;21.00;99.90;;;;;;4935580;29;20225;-85
2023/06/18 01:15:15;;;;;;;16.52;11.70;;;21.00;99.90;;;;;;4936389;29;20289;-85
2023/06/18 01:17:47;;;;;;;11.15;9.95;;;21.00;99.90;;;;;;4936618;29;20316;-83
2023/06/18 01:20:16;;;;;;;12.60;10.38;;;20.90;99.90;;;;;;4935431;29;20300;-82
2023/06/18 01:22:48;;;;;;;13.57;10.13;;;20.90;99.90;;;;;;4936174;29;20206;-84
2023/06/18 01:25:19;;;;;;;11.10;9.60;;;20.90;99.90;;;;;;4935699;29;20205;-84
2023/06/18 01:27:47;;;;;;;11.35;10.25;;;20.90;99.90;;;;;;4935893;29;20281;-82
2023/06/18 01:30:15;;;;;;;13.90;10.02;;;20.80;99.90;;;;;;4935620;29;20621;-83
2023/06/18 01:32:42;;;;;;;13.05;10.20;;;20.80;99.90;;;;;;4935640;29;20790;-83
2023/06/18 01:35:14;;;;;;;13.95;10.48;;;20.80;99.90;;;;;;4936223;29;20238;-87
2023/06/18 01:37:48;;;;;;;13.00;10.52;;;20.80;99.90;;;;;;4936031;29;20225;-82
2023/06/18 01:40:35;;;;;;;14.30;10.27;;;20.70;99.90;;;;;;4935494;29;20210;-82
2023/06/18 01:43:11;;;;;;;13.20;11.60;;;20.70;99.90;;;;;;4935441;29;20208;-83
2023/06/18 01:45:42;;;;;;;15.85;12.45;;;20.70;99.90;;;;;;4935931;29;20248;-85
2023/06/18 01:48:10;;;;;;;12.32;10.55;;;20.60;99.90;;;;;;4935377;29;20604;-83
2023/06/18 01:50:39;;;;;;;14.25;11.05;;;20.60;99.90;;;;;;4935704;29;20208;-84
2023/06/18 01:53:07;;;;;;;12.68;10.65;;;20.60;99.90;;;;;;4936022;29;20261;-83
2023/06/18 01:55:38;;;;;;;12.63;10.63;;;20.60;99.90;;;;;;4935013;29;20202;-82
2023/06/18 01:58:05;;;;;;;11.27;10.15;;;20.50;99.90;;;;;;4935907;29;20565;-86
2023/06/18 02:00:32;;;;;;;16.73;11.55;;;20.50;99.90;;;;;;4935745;29;20230;-82
2023/06/18 02:02:59;;;;;;;14.18;11.65;;;20.50;99.90;;;;;;4934939;29;20209;-85
2023/06/18 02:05:26;;;;;;;13.50;11.43;;;20.50;99.90;;;;;;4935749;29;20209;-84
2023/06/18 02:07:53;;;;;;;16.85;12.02;;;20.50;99.90;;;;;;4935679;29;20194;-83
2023/06/18 02:10:20;;;;;;;13.25;11.15;;;20.40;99.90;;;;;;4934695;29;20216;-82
2023/06/18 02:12:48;;;;;;;12.38;10.85;;;20.40;99.90;;;;;;4935451;29;20206;-86
2023/06/18 02:15:16;;;;;;;12.32;11.00;;;20.40;99.90;;;;;;4931002;29;20214;-84
2023/06/18 02:17:44;;;;;;;13.40;11.07;;;20.40;99.90;;;;;;4922667;29;20296;-86
2023/06/18 02:20:12;;;;;;;15.90;11.57;;;20.40;99.90;;;;;;4935374;29;20214;-85
2023/06/18 02:22:39;;;;;;;14.25;10.88;;;20.30;99.90;;;;;;4935138;29;20240;-82
2023/06/18 02:25:07;;;;;;;13.90;11.15;;;20.30;99.90;;;;;;4938658;29;20293;-86
2023/06/18 02:27:33;;;;;;;12.30;10.93;;;20.30;99.90;;;;;;4940112;29;20198;-86
2023/06/18 02:30:02;;;;;;;13.82;10.80;;;20.30;99.90;;;;;;4927328;29;20597;-83
2023/06/18 02:32:31;;;;;;;13.75;10.50;;;20.30;99.90;;;;;;4920962;29;20219;-86
2023/06/18 02:34:58;;;;;;;11.20;10.10;;;20.20;99.90;;;;;;4929833;29;20583;-82
2023/06/18 02:37:25;;;;;;;18.63;11.43;;;20.20;99.90;;;;;;4939051;29;20194;-83
2023/06/18 02:39:52;;;;;;;17.25;11.63;;;20.20;99.90;;;;;;4939370;29;20595;-86
2023/06/18 02:42:20;;;;;;;11.88;9.93;;;20.10;99.90;;;;;;4940198;29;20650;-83
2023/06/18 02:44:48;;;;;;;12.73;11.07;;;20.10;99.90;;;;;;4939796;29;20273;-85
2023/06/18 02:47:16;;;;;;;11.32;10.13;;;20.10;99.90;;;;;;4939833;29;20201;-84
2023/06/18 02:49:43;;;;;;;13.30;11.13;;;20.00;99.90;;;;;;4939543;29;20214;-84
2023/06/18 02:52:10;;;;;;;14.50;11.20;;;20.00;99.90;;;;;;4937855;29;20210;-79
2023/06/18 02:54:37;;;;;;;14.07;10.45;;;20.00;99.90;;;;;;4939264;29;20215;-84
2023/06/18 02:57:05;;;;;;;13.88;12.02;;;20.00;99.90;;;;;;4938975;29;20206;-82
2023/06/18 02:59:33;;;;;;;12.70;10.60;;;20.00;99.90;;;;;;4919605;29;20215;-84
2023/06/18 03:02:00;;;;;;;12.88;11.38;;;19.90;99.90;;;;;;4919862;29;20222;-83
2023/06/18 03:04:29;;;;;;;14.27;11.30;;;19.90;99.90;;;;;;4923642;29;20209;-86
2023/06/18 03:06:59;;;;;;;14.00;10.98;;;19.90;99.90;;;;;;4938881;29;20610;-84
2023/06/18 03:09:26;;;;;;;14.27;10.25;;;19.90;99.90;;;;;;4938819;29;20214;-85
2023/06/18 03:11:53;;;;;;;13.27;10.32;;;19.90;99.90;;;;;;4939024;29;20198;-83
2023/06/18 03:14:21;;;;;;;12.60;10.13;;;19.90;99.90;;;;;;4938981;29;20233;-84
2023/06/18 03:16:48;;;;;;;12.07;9.98;;;19.80;99.90;;;;;;4938318;29;20320;-84
2023/06/18 03:19:15;;;;;;;11.95;9.50;;;19.80;99.90;;;;;;4938290;29;20667;-82
2023/06/18 03:21:43;;;;;;;10.75;9.73;;;19.80;99.90;;;;;;4938180;29;20225;-81
2023/06/18 03:24:11;;;;;;;12.30;9.32;;;19.80;99.90;;;;;;4939120;29;20373;-84
2023/06/18 03:26:38;;;;;;;10.55;8.85;;;19.70;99.90;;;;;;4938013;29;20218;-85
2023/06/18 03:29:05;;;;;;;12.75;10.55;;;19.70;99.90;;;;;;4938976;29;20209;-83
2023/06/18 03:31:32;;;;;;;14.95;10.73;;;19.70;99.90;;;;;;4938249;29;20230;-85
2023/06/18 03:34:01;;;;;;;11.90;9.52;;;19.70;99.90;;;;;;4938014;29;20260;-84
2023/06/18 03:36:28;;;;;;;12.13;10.35;;;19.70;99.90;;;;;;4937053;29;20313;-83
2023/06/18 03:38:57;;;;;;;11.43;9.93;;;19.60;99.90;;;;;;4938625;29;20202;-84
2023/06/18 03:41:24;;;;;;;10.07;9.02;;;19.60;99.90;;;;;;4937847;29;20226;-83
2023/06/18 03:43:51;;;;;;;11.88;9.52;;;19.50;99.90;;;;;;4939033;29;20232;-86
2023/06/18 03:46:18;;;;;;;9.98;9.05;;;19.50;99.90;;;;;;4938248;29;20301;-83
2023/06/18 03:48:44;;;;;;;10.57;9.50;;;19.50;99.90;;;;;;4937561;29;20202;-85
2023/06/18 03:51:11;;;;;;;11.00;9.70;;;19.50;99.90;;;;;;4938453;29;20285;-85
2023/06/18 03:53:38;;;;;;;11.50;9.23;;;19.50;99.90;;;;;;4937840;29;20545;-83
2023/06/18 03:56:08;;;;;;;11.65;10.45;;;19.50;99.90;;;;;;4903056;29;20209;-84
2023/06/18 03:58:35;;;;;;;13.10;10.13;;;19.50;99.90;;;;;;4919024;29;20198;-86
2023/06/18 04:01:01;;;;;;;11.30;10.10;;;19.50;99.90;;;;;;4919107;29;20695;-84
2023/06/18 04:03:29;;;;;;;12.15;10.27;;;19.50;99.90;;;;;;4926231;29;20245;-84
2023/06/18 04:05:56;;;;;;;12.02;10.35;;;19.50;99.90;;;;;;4938710;29;20205;-86
2023/06/18 04:08:23;;;;;;;9.90;8.70;;;19.60;99.90;;;;;;4937643;29;20198;-83
2023/06/18 04:10:50;;;;;;;8.95;8.00;;;19.60;99.90;;;;;;4938488;29;20210;-84
2023/06/18 04:13:18;;;;;;;12.63;10.48;;;19.60;99.90;;;;;;4938212;29;20584;-85
2023/06/18 04:15:45;;;;;;;11.80;9.80;;;19.60;99.90;;;;;;4937939;29;20206;-84
2023/06/18 04:18:12;;;;;;;12.68;10.52;;;19.60;99.90;;;;;;4937602;29;20205;-83
2023/06/18 04:20:39;;;;;;;10.13;9.05;;;19.60;99.90;;;;;;4937669;29;20296;-85
2023/06/18 04:23:07;;;;;;;10.90;9.80;;;19.70;99.90;;;;;;4937193;29;20661;-84
2023/06/18 04:25:34;;;;;;;11.50;10.38;;;19.70;99.90;;;;;;4938092;29;20599;-83
2023/06/18 04:28:01;;;;;;;9.90;8.80;;;19.80;99.90;;;;;;4938082;29;20289;-84
2023/06/18 04:30:29;;;;;;;10.90;9.77;;;19.70;99.90;;;;;;4937188;29;20209;-83
2023/06/18 04:32:56;;;;;;;10.52;9.50;;;19.80;99.90;;;;;;4937813;29;20554;-85
2023/06/18 04:35:23;;;;;;;11.35;8.73;;;19.80;99.90;;;;;;4938483;29;20265;-85
2023/06/18 04:37:50;;;;;;;10.32;8.68;;;19.90;99.90;;;;;;4937064;29;20232;-86
2023/06/18 04:40:18;;;;;;;13.55;10.07;;;19.90;99.90;;;;;;4938065;29;20206;-84
2023/06/18 04:42:45;;;;;;;10.63;9.20;;;19.90;99.90;;;;;;4937587;29;20626;-85
2023/06/18 04:45:11;;;;;;;9.20;8.30;;;20.00;99.90;;;;;;4937130;29;20323;-86
2023/06/18 04:47:40;;;;;;;11.27;7.95;;;20.00;99.90;;;;;;4936874;29;20226;-87
2023/06/18 04:50:08;;;;;;;9.63;8.65;;;20.00;99.90;;;;;;4937192;29;20216;-86
2023/06/18 04:52:36;;;;;;;9.32;8.43;;;20.00;99.90;;;;;;4936985;29;20252;-85
2023/06/18 04:55:03;;;;;;;11.80;9.25;;;20.10;99.90;;;;;;4937610;29;20210;-86
2023/06/18 04:57:29;;;;;;;10.93;8.90;;;20.10;99.90;;;;;;4937406;29;20654;-85
2023/06/18 04:59:56;;;;;;;8.40;7.45;;;20.20;99.90;;;;;;4937157;29;20690;-85
2023/06/18 05:02:24;;;;;;;8.85;7.95;;;20.30;99.90;;;;;;4937426;29;20296;-84
2023/06/18 05:04:52;;;;;;;11.98;9.15;;;20.40;99.90;;;;;;4937269;29;20205;-86
2023/06/18 05:07:19;;;;;;;9.73;8.73;;;20.50;99.90;;;;;;4937582;29;20210;-87
2023/06/18 05:09:46;;;;;;;9.90;8.00;;;20.60;99.90;;;;;;4937171;29;20599;-85
2023/06/18 05:12:13;;;;;;;7.95;7.25;;;20.70;99.90;;;;;;4937440;29;20206;-87
2023/06/18 05:14:40;;;;;;;10.27;8.23;;;20.90;99.90;;;;;;4937561;29;20240;-87
2023/06/18 05:17:07;;;;;;;7.32;6.63;;;21.00;99.90;;;;;;4937362;29;20212;-88
2023/06/18 05:19:34;;;;;;;7.82;6.97;;;21.10;99.90;;;;;;4936992;29;20201;-85
2023/06/18 05:22:03;;;;;;;8.38;7.57;;;21.20;99.90;;;;;;4936949;29;20226;-85
2023/06/18 05:24:29;;;;;;;8.50;7.25;;;21.30;99.90;;;;;;4937345;29;20288;-86
2023/06/18 05:26:56;;;;;;;7.90;7.03;;;21.40;99.90;;;;;;4937000;29;20206;-84
2023/06/18 05:29:23;;;;;;;7.20;6.60;;;21.50;99.90;;;;;;4937502;29;20280;-86
2023/06/18 05:31:50;;;;;;;8.60;7.03;;;21.60;99.90;;;;;;4937118;29;20328;-86
2023/06/18 05:34:17;;;;;;;7.88;7.18;;;21.60;99.90;;;;;;4936916;29;20288;-85
2023/06/18 05:36:44;;;;;;;8.38;6.30;;;21.70;99.90;;;;;;4936703;29;20217;-85
2023/06/18 05:39:12;;;;;;;8.25;6.45;;;21.70;99.90;;;;;;4937295;29;20205;-87
2023/06/18 05:41:39;;;;;;;8.00;7.30;;;21.80;99.90;;;;;;4936633;29;20218;-85
2023/06/18 05:44:06;;;;;;;7.57;6.43;;;21.90;99.90;;;;;;4937166;29;20197;-88
2023/06/18 05:46:33;;;;;;;8.90;7.20;;;21.90;99.90;;;;;;4936084;29;20202;-85
2023/06/18 05:49:00;;;;;;;8.05;6.47;;;21.90;99.90;;;;;;4936322;29;20292;-85
2023/06/18 05:51:27;;;;;;;7.05;6.25;;;21.90;99.90;;;;;;4936084;29;20210;-87
2023/06/18 05:53:54;;;;;;;6.82;6.20;;;21.90;99.90;;;;;;4936485;29;20230;-86
2023/06/18 05:56:22;;;;;;;7.90;6.95;;;22.00;99.90;;;;;;4936498;29;20281;-86
2023/06/18 05:58:49;;;;;;;7.65;6.80;;;22.10;99.90;;;;;;4936305;29;20291;-85
2023/06/18 06:01:16;;;;;;;7.32;6.63;;;22.10;99.90;;;;;;4935905;29;20221;-85
2023/06/18 06:03:43;;;;;;;8.00;6.70;;;22.20;99.90;;;;;;4936658;29;20225;-86
2023/06/18 06:06:10;;;;;;;7.97;6.43;;;22.30;99.90;;;;;;4936690;29;20214;-87
2023/06/18 06:08:37;;;;;;;9.10;6.43;;;22.50;99.90;;;;;;4936220;29;20584;-87
2023/06/18 06:11:04;;;;;;;7.65;5.90;;;22.70;99.90;;;;;;4917931;29;20202;-88
2023/06/18 06:13:32;;;;;;;8.20;7.30;;;22.90;99.90;;;;;;4917644;29;20286;-86
2023/06/18 06:16:00;;;;;;;8.45;6.82;;;23.00;99.90;;;;;;4926850;29;20220;-85
2023/06/18 06:18:26;;;;;;;6.05;5.45;;;23.10;99.90;;;;;;4936610;29;20515;-86
2023/06/18 06:20:53;;;;;;;6.80;6.20;;;23.20;99.90;;;;;;4938718;29;20208;-87
2023/06/18 06:23:20;;;;;;;8.07;6.15;;;23.20;99.90;;;;;;4935786;29;20717;-87
2023/06/18 06:25:47;;;;;;;6.80;6.20;;;23.20;99.90;;;;;;4935501;29;20223;-85
2023/06/18 06:28:14;;;;;;;9.70;6.85;;;23.30;99.90;;;;;;4936244;29;20280;-85
2023/06/18 06:30:42;;;;;;;6.47;5.88;;;23.30;99.90;;;;;;4936244;29;20208;-84
2023/06/18 06:33:09;;;;;;;7.13;6.30;;;23.40;99.90;;;;;;4936254;29;20220;-84
2023/06/18 06:35:37;;;;;;;6.07;5.47;;;23.50;99.90;;;;;;4936494;29;20194;-88
2023/06/18 06:38:04;;;;;;;8.23;6.53;;;23.70;99.90;;;;;;4937054;29;20202;-87
2023/06/18 06:40:31;;;;;;;6.90;6.30;;;23.70;99.90;;;;;;4937005;29;20489;-86
2023/06/18 06:42:58;;;;;;;8.18;6.55;;;23.80;99.90;;;;;;4936329;29;20576;-87
2023/06/18 06:45:27;;;;;;;6.88;6.20;;;23.80;99.90;;;;;;4936711;29;20212;-87
2023/06/18 06:47:55;;;;;;;8.00;6.57;;;23.90;99.90;;;;;;4935877;29;20214;-87
2023/06/18 06:50:24;;;;;;;7.82;6.80;;;23.90;99.90;;;;;;4935334;29;20288;-85
2023/06/18 06:52:51;;;;;;;9.18;6.80;;;23.80;99.90;;;;;;4936283;29;20809;-85
2023/06/18 06:55:18;;;;;;;9.13;6.80;;;23.70;99.90;;;;;;4935876;29;20210;-84
2023/06/18 06:57:45;;;;;;;7.38;6.68;;;23.60;99.90;;;;;;4935285;29;20220;-86
2023/06/18 07:00:13;;;;;;;9.57;7.85;;;23.60;99.90;;;;;;4935993;29;20220;-91
2023/06/18 07:02:40;;;;;;;9.43;6.90;;;23.50;99.90;;;;;;4943439;29;20248;-89
2023/06/18 07:05:10;;;;;;;7.40;6.38;;;23.50;99.90;;;;;;4954865;29;20271;-92
2023/06/18 07:07:37;;;;;;;10.40;7.00;;;23.50;99.90;;;;;;4939641;29;20210;-84
2023/06/18 07:10:05;;;;;;;7.80;6.53;;;23.50;99.90;;;;;;4935778;29;20217;-86
2023/06/18 07:12:32;;;;;;;7.90;5.68;;;23.50;99.90;;;;;;4938144;29;20289;-85
2023/06/18 07:15:00;;;;;;;6.80;6.20;;;23.40;99.90;;;;;;4931745;29;20449;-84
2023/06/18 07:17:27;;;;;;;6.75;5.95;;;23.40;99.90;;;;;;4938565;29;20273;-86
2023/06/18 07:19:55;;;;;;;7.15;5.78;;;23.30;99.90;;;;;;4942909;29;20553;-86
2023/06/18 07:22:23;;;;;;;6.50;5.63;;;23.30;99.90;;;;;;4943031;29;20713;-87
2023/06/18 07:24:50;;;;;;;7.43;5.57;;;23.20;99.90;;;;;;4937999;29;20627;-85
2023/06/18 07:27:17;;;;;;;7.03;6.07;;;23.20;99.90;;;;;;4939398;29;20247;-86
2023/06/18 07:29:45;;;;;;;8.30;5.80;;;23.30;99.90;;;;;;4940156;29;20289;-82
2023/06/18 07:32:12;;;;;;;6.32;5.70;;;23.30;99.90;;;;;;4937621;29;20233;-87
2023/06/18 07:34:40;;;;;;;6.22;5.63;;;23.30;99.90;;;;;;4939476;29;20208;-87
2023/06/18 07:37:07;;;;;;;6.35;5.65;;;23.30;99.90;;;;;;4939514;29;20234;-88
2023/06/18 07:39:35;;;;;;;10.75;7.13;;;23.30;99.90;;;;;;4938316;29;20233;-88
2023/06/18 07:42:02;;;;;;;7.72;5.80;;;23.30;99.90;;;;;;4939733;29;20208;-86
2023/06/18 07:44:28;;;;;;;8.13;6.18;;;23.30;99.90;;;;;;4922509;29;20306;-88
2023/06/18 07:46:55;;;;;;;6.75;6.15;;;23.30;99.90;;;;;;4920195;29;20267;-91
2023/06/18 07:49:22;;;;;;;7.90;5.85;;;23.40;99.90;;;;;;4920848;29;20210;-93
2023/06/18 07:51:50;;;;;;;6.13;5.53;;;23.50;99.90;;;;;;4927055;29;20202;-92
2023/06/18 07:54:16;;;;;;;8.50;6.10;;;23.50;99.90;;;;;;4939253;29;20230;-90
2023/06/18 07:56:45;;;;;;;7.38;5.75;;;23.70;99.90;;;;;;4939180;29;20292;-93
2023/06/18 07:59:12;;;;;;;9.60;6.78;;;23.70;99.90;;;;;;4939405;29;20552;-90
2023/06/18 08:01:39;;;;;;;6.30;5.70;;;23.70;99.90;;;;;;4920136;29;20551;-92
2023/06/18 08:04:06;;;;;;;9.93;6.50;;;23.80;99.90;;;;;;4920183;29;20230;-90
2023/06/18 08:06:33;;;;;;;8.45;5.95;;;23.80;99.90;;;;;;4920324;29;20218;-89
2023/06/18 08:09:00;;;;;;;6.68;6.05;;;23.80;99.90;;;;;;4926519;29;20281;-88
2023/06/18 08:11:27;;;;;;;12.02;6.80;;;23.80;99.90;;;;;;4938962;29;20214;-86
2023/06/18 08:13:55;;;;;;;10.02;6.70;;;23.90;99.90;;;;;;4938433;29;20285;-88
2023/06/18 08:16:23;;;;;;;10.15;5.68;;;23.90;99.90;;;;;;4938802;29;20594;-92
2023/06/18 08:18:52;;;;;;;7.85;7.05;;;24.00;99.90;;;;;;4938565;29;20202;-88
2023/06/18 08:21:19;;;;;;;10.02;7.07;;;24.00;99.90;;;;;;4937550;29;20210;-85
2023/06/18 08:23:46;;;;;;;10.45;7.22;;;24.00;99.90;;;;;;4938761;29;20258;-88
2023/06/18 08:26:13;;;;;;;9.43;7.30;;;24.00;99.90;;;;;;4938263;29;20202;-87
2023/06/18 08:28:40;;;;;;;8.57;7.50;;;24.10;99.90;;;;;;4936270;29;20486;-87
2023/06/18 08:31:08;;;;;;;7.88;6.45;;;24.10;99.90;;;;;;4937669;29;20232;-93
2023/06/18 08:33:35;;;;;;;5.72;5.20;;;24.10;99.90;;;;;;4937146;29;20310;-87
2023/06/18 08:36:02;;;;;;;7.32;6.22;;;24.20;99.90;;;;;;4937671;29;20230;-87
2023/06/18 08:38:29;;;;;;;7.18;6.35;;;24.40;99.90;;;;;;4931687;29;20212;-88
2023/06/18 08:41:01;;;;;;;6.63;6.03;;;24.40;1.00;;;;;;4937909;29;20791;-91
2023/06/18 08:43:32;;;;;;;7.50;6.50;;;24.50;1.00;;;;;;4937968;29;20232;-88
2023/06/18 08:46:04;;;;;;;6.78;5.95;;;24.70;99.90;;;;;;4928823;29;20457;-88
2023/06/18 08:48:39;;;;;;;9.93;6.85;;;24.80;1.00;;;;;;4927895;29;20209;-89
2023/06/18 08:51:06;;;;;;;6.63;5.45;;;25.00;99.90;;;;;;4937377;29;20274;-88
2023/06/18 08:53:44;;;;;;;7.85;6.18;;;25.10;99.90;;;;;;4937141;29;20238;-87
2023/06/18 08:56:14;;;;;;;6.05;5.50;;;25.20;99.90;;;;;;4937411;29;20509;-88
2023/06/18 08:58:44;;;;;;;8.05;7.25;;;25.50;1.00;;;;;;4935068;29;20259;-91
2023/06/18 09:01:12;;;;;;;6.95;6.25;;;25.80;1.00;;;;;;4937773;29;20285;-88
2023/06/18 09:03:42;;;;;;;5.82;5.32;;;26.10;1.00;;;;;;4936973;29;20230;-85
2023/06/18 09:06:09;;;;;;;10.30;7.10;;;26.50;1.00;;;;;;4937909;29;20220;-88
2023/06/18 09:08:38;;;;;;;6.95;6.28;;;26.80;1.00;;;;;;4938055;29;20318;-88
2023/06/18 09:11:05;;;;;;;7.95;6.07;;;27.20;1.00;;;;;;4937163;29;20202;-85
2023/06/18 09:13:33;;;;;;;7.25;6.53;;;27.50;99.90;;;;;;4937453;29;20208;-89
2023/06/18 09:16:00;;;;;;;6.53;5.93;;;27.70;21.30;;;;;;4937484;29;20236;-88
2023/06/18 09:18:27;;;;;;;8.70;7.28;;;28.10;1.00;;;;;;4938060;29;20607;-90
2023/06/18 09:20:56;;;;;;;6.38;5.78;;;28.20;99.90;;;;;;4936970;29;20238;-88
2023/06/18 09:23:23;;;;;;;5.82;5.32;;;28.50;99.90;;;;;;4936771;29;20226;-86
2023/06/18 09:25:52;;;;;;;6.05;5.45;;;28.70;99.90;;;;;;4936084;29;20216;-86
2023/06/18 09:28:19;;;;;;;6.32;5.68;;;29.00;99.90;;;;;;4936116;29;20222;-86
2023/06/18 09:30:51;;;;;;;6.15;5.43;;;29.20;99.90;;;;;;4917990;29;20214;-84
2023/06/18 09:33:31;;;;;;;7.85;6.35;;;29.40;74.90;;;;;;4918198;29;20243;-90
2023/06/18 09:36:04;;;;;;;6.85;6.20;;;29.50;1.00;;;;;;4930271;29;20214;-88
2023/06/18 09:38:36;;;;;;;6.53;5.93;;;29.60;1.00;;;;;;4917555;29;20241;-84
2023/06/18 09:41:09;;;;;;;5.35;4.95;;;29.70;1.00;;;;;;4935178;29;20543;-84
2023/06/18 09:43:37;;;;;;;9.18;6.22;;;29.70;1.00;;;;;;4935645;29;20221;-87
2023/06/18 09:46:05;;;;;;;7.78;6.20;;;29.80;1.00;;;;;;4936346;29;20224;-84
2023/06/18 09:48:34;;;;;;;8.20;6.00;;;29.80;1.00;;;;;;4936157;29;20546;-85
2023/06/18 09:51:03;;;;;;;10.35;7.40;;;29.80;1.00;;;;;;4936586;29;20293;-88
2023/06/18 09:53:30;;;;;;;7.50;6.80;;;29.80;1.00;;;;;;4935094;29;20257;-85
2023/06/18 09:56:08;;;;;;;6.82;5.40;;;29.70;1.00;;;;;;4936033;29;20216;-88
2023/06/18 09:58:43;;;;;;;6.13;5.63;;;29.80;1.00;;;;;;4936976;29;20201;-89
2023/06/18 10:01:10;;;;;;;6.10;5.43;;;29.90;1.00;;;;;;4935731;29;20236;-84
2023/06/18 10:03:37;;;;;;;6.43;5.82;;;29.90;1.00;;;;;;4935570;29;20218;-85
2023/06/18 10:06:12;;;;;;;6.65;5.97;;;30.00;1.00;;;;;;4935193;29;20544;-88
2023/06/18 10:08:44;;;;;;;6.53;5.53;;;30.00;1.00;;;;;;4935358;29;20288;-87
2023/06/18 10:11:12;;;;;;;5.18;4.72;;;30.00;1.00;;;;;;4935529;29;20198;-85
2023/06/18 10:13:44;;;;;;;7.13;6.43;;;30.10;1.00;;;;;;4936288;29;20205;-85
2023/06/18 10:16:13;;;;;;;9.13;7.40;;;30.00;99.90;;;;;;4935465;29;20477;-87
2023/06/18 10:18:56;;;;;;;6.35;5.70;;;29.70;99.90;;;;;;4937002;29;20281;-89
2023/06/18 10:21:25;;;;;;;6.47;5.88;;;29.70;99.90;;;;;;4935287;29;20630;-89
2023/06/18 10:23:55;;;;;;;6.40;5.80;;;29.60;99.90;;;;;;4933817;29;20649;-89
2023/06/18 10:26:23;;;;;;;6.20;5.60;;;29.50;99.90;;;;;;4936153;29;20253;-89
2023/06/18 10:28:51;;;;;;;7.10;6.40;;;29.50;99.90;;;;;;4936178;29;20290;-88
2023/06/18 10:31:19;;;;;;;7.00;6.25;;;29.60;99.90;;;;;;4936873;29;20230;-89
2023/06/18 10:33:47;;;;;;;7.43;6.15;;;29.60;99.90;;;;;;4937056;29;20281;-89
2023/06/18 10:36:15;;;;;;;7.38;6.78;;;29.60;99.90;;;;;;4935086;29;20213;-88
2023/06/18 10:38:44;;;;;;;6.43;5.82;;;29.70;99.90;;;;;;4935323;29;20294;-89
2023/06/18 10:41:12;;;;;;;6.28;5.72;;;29.80;99.90;;;;;;4936895;29;20214;-90
2023/06/18 10:43:41;;;;;;;7.68;6.97;;;29.90;99.90;;;;;;4937011;29;20221;-87
2023/06/18 10:46:12;;;;;;;11.02;8.63;;;30.00;99.90;;;;;;4937733;29;20209;-87
2023/06/18 10:48:40;;;;;;;8.18;6.57;;;30.00;99.90;;;;;;4940364;29;20198;-85
2023/06/18 10:51:14;;;;;;;8.15;6.85;;;30.10;99.90;;;;;;4940534;29;20214;-87
2023/06/18 10:53:43;;;;;;;6.95;6.32;;;30.10;99.90;;;;;;4940468;29;20663;-88
2023/06/18 10:56:11;;;;;;;9.15;7.68;;;30.20;99.90;;;;;;4940005;29;20208;-88
2023/06/18 10:58:40;;;;;;;11.15;7.25;;;30.20;99.90;;;;;;4940102;29;20285;-90
2023/06/18 11:01:07;;;;;;;8.43;7.53;;;30.20;99.90;;;;;;4939954;29;20281;-89
2023/06/18 11:03:35;;;;;;;9.70;7.47;;;30.20;99.90;;;;;;4939435;29;20522;-85
2023/06/18 11:06:09;;;;;;;9.05;7.15;;;30.00;99.90;;;;;;4940286;29;20206;-85
2023/06/18 11:08:37;;;;;;;7.05;6.38;;;29.50;99.90;;;;;;4939726;29;20603;-93
2023/06/18 11:11:09;;;;;;;6.45;5.85;;;29.40;99.90;;;;;;4939890;29;20202;-89
2023/06/18 11:13:38;;;;;;;6.63;5.68;;;29.30;99.90;;;;;;4939531;29;20289;-86
2023/06/18 11:16:13;;;;;;;7.38;6.53;;;29.40;99.90;;;;;;4939888;29;20689;-88
2023/06/18 11:18:41;;;;;;;6.93;6.22;;;29.40;99.90;;;;;;4939896;29;20650;-92
2023/06/18 11:21:13;;;;;;;7.88;6.10;;;29.40;99.90;;;;;;4939989;29;20645;-91
2023/06/18 11:23:41;;;;;;;7.05;5.53;;;29.30;1.00;;;;;;4940068;29;20304;-89
2023/06/18 11:26:14;;;;;;;6.88;6.00;;;29.30;99.90;;;;;;4939751;29;20497;-90
2023/06/18 11:28:41;;;;;;;5.93;5.32;;;29.40;99.90;;;;;;4940098;29;20191;-89
2023/06/18 11:31:08;;;;;;;6.47;5.88;;;29.50;99.90;;;;;;4939635;29;20233;-87
2023/06/18 11:33:35;;;;;;;6.25;5.65;;;29.50;99.90;;;;;;4939297;29;20655;-89
2023/06/18 11:36:10;;;;;;;6.05;5.43;;;29.50;99.90;;;;;;4939758;29;20273;-90
2023/06/18 11:38:37;;;;;;;9.15;5.93;;;29.50;99.90;;;;;;4939836;29;20201;-89
2023/06/18 11:41:04;;;;;;;6.15;5.45;;;29.50;99.90;;;;;;4939780;29;20267;-86
2023/06/18 11:43:46;;;;;;;5.75;5.25;;;29.50;99.90;;;;;;4939530;29;20190;-90
2023/06/18 11:46:35;;;;;;;8.20;6.63;;;29.50;99.90;;;;;;4938167;29;20621;-93
2023/06/18 11:49:03;;;;;;;8.13;7.07;;;29.40;99.90;;;;;;4933598;29;20214;-87
2023/06/18 11:51:31;;;;;;;7.47;6.45;;;29.10;99.90;;;;;;4942586;29;20284;-88
2023/06/18 11:53:58;;;;;;;10.02;7.20;;;29.00;99.90;;;;;;4945154;29;20602;-86
2023/06/18 11:56:26;;;;;;;6.20;5.60;;;29.00;99.90;;;;;;4947103;29;20236;-88
2023/06/18 11:58:55;;;;;;;6.85;6.15;;;29.00;99.90;;;;;;4939065;29;20298;-88
2023/06/18 12:01:27;;;;;;;6.30;5.70;;;29.00;99.90;;;;;;4938198;29;20297;-90
2023/06/18 12:04:03;;;;;;;6.78;6.15;;;29.00;1.00;;;;;;4933270;29;20234;-86
2023/06/18 12:06:30;;;;;;;7.18;6.50;;;28.90;99.90;;;;;;4940645;29;20241;-87
2023/06/18 12:09:04;;;;;;;7.75;7.05;;;28.90;99.90;;;;;;4934607;29;20205;-88
2023/06/18 12:11:39;;;;;;;6.93;6.32;;;28.90;99.90;;;;;;4943634;29;20207;-88
2023/06/18 12:14:18;;;;;;;5.75;5.25;;;28.90;99.90;;;;;;4923683;29;20617;-90
2023/06/18 12:16:48;;;;;;;7.72;7.03;;;28.90;1.00;;;;;;4938238;29;20205;-89
2023/06/18 12:19:16;;;;;;;6.78;6.18;;;29.00;1.00;;;;;;4938699;29;20210;-90
2023/06/18 12:21:43;;;;;;;7.78;7.07;;;28.90;99.90;;;;;;4937555;29;20210;-89
2023/06/18 12:24:10;;;;;;;7.28;6.53;;;28.80;1.00;;;;;;4936335;29;20320;-89
2023/06/18 12:26:37;;;;;;;6.93;5.85;;;28.80;1.00;;;;;;4936147;29;20234;-90
2023/06/18 12:29:06;;;;;;;7.15;6.05;;;28.80;1.00;;;;;;4938150;29;20212;-87
2023/06/18 12:31:36;;;;;;;6.00;5.10;;;28.70;1.00;;;;;;4921439;29;20252;-87
2023/06/18 12:34:03;;;;;;;6.60;5.60;;;28.80;1.00;;;;;;4938965;29;20189;-88
2023/06/18 12:36:30;;;;;;;5.95;5.35;;;28.60;99.90;;;;;;4938124;29;20260;-89
2023/06/18 12:38:57;;;;;;;5.28;4.63;;;28.50;99.90;;;;;;4938052;29;20205;-86
2023/06/18 12:41:27;;;;;;;6.28;5.72;;;28.50;1.00;;;;;;4938143;29;20590;-88
2023/06/18 12:43:54;;;;;;;5.82;5.32;;;28.50;1.00;;;;;;4936951;29;20205;-85
2023/06/18 12:46:25;;;;;;;6.60;5.95;;;28.40;99.90;;;;;;4936175;29;20228;-87